NCAR-RAP Real-Time Weather Data

Output produced by METARs form (08 May 2021  02:31 UTC)
found at http://weather.rap.ucar.edu/surface/
 
KROW 080151Z 05017G21KT 10SM BLDU CLR 26/08 A2988 RMK AO2 PK WND 35041/0103 WSHFT 0049 LTG DSNT NE AND E SLP056 T02560083
KROW 080108Z 36030G41KT 3SM HZ BLDU SCT017 29/06 A2983 RMK AO2 PK WND 35041/0103 WSHFT 0049 LTG DSNT N AND NE T02940056
KROW 080103Z 35031G41KT 3/4SM HZ BLDU BKN017 30/06 A2982 RMK AO2 PK WND 35041/0103 WSHFT 0049 SFC VIS 1 3/4 LTG DSNT N AND NE T03000056
KROW 080053Z 27019G27KT 3/4SM HZ SCT017 31/04 A2983 RMK AO2 WSHFT 0038 SFC VIS 2 1/2 T03060039
KROW 080051Z 27020G27KT 4SM HZ FEW017 32/04 A2982 RMK AO2 PK WND 20029/2354 WSHFT 0036 LTG DSNT N SLP034 T03170039
KROW 072351Z 22015G21KT 10SM CLR 35/03 A2980 RMK AO2 SLP022 60000 T03500033 10356 20272 56036
KROW 072251Z COR 08011KT 10SM CLR 33/07 A2982 RMK AO2 PK WND 34028/2208 WSHFT 2211 LTG DSNT NE AND E RAE08 TSE25 SLP029 P0000 T03280067
KROW 072231Z 04015KT 10SM SCT120 29/08 A2982 RMK AO2 PK WND 34028/2208 WSHFT 2211 LTG DSNT NE AND E RAE08 TSE25 P0000 T02940078
KROW 072214Z 02015G28KT 10SM TS BKN120 28/06 A2984 RMK AO2 PK WND 34028/2208 WSHFT 2154 LTG DSNT NE RAE08 P0000 T02830056
KROW 072151Z 08009KT 10SM -TSRA FEW060 FEW080 BKN110 32/08 A2986 RMK AO2 PK WND 19027/2052 LTG DSNT NE RAB49 TSB51 SLP045 P0000 T03170083
KROW 072121Z 16016G26KT 10SM VCTS BKN100 32/07 A2989 RMK AO2 PK WND 19027/2052 LTG DSNT W PRESFR T03170072
KROW 072051Z COR 18023G34KT 10SM HZ FEW036 FEW070 BKN110 32/06 A2992 RMK AO2 PK WND 16034/2050 WSHFT 1941 LTG DSNT W SLP064 T03220056 56036
KROW 072042Z AUTO 20020G25KT 10SM VCTS FEW065 BKN110 33/05 A2992 RMK AO2 PK WND 21031/1957 WSHFT 1941 T03280050
KROW 072001Z 18016G31KT 10SM SCT110 34/06 A2993 RMK AO2 PK WND 21031/1957 WSHFT 1941 LTG DSNT W AND NW T03390061
KROW 071951Z 20014G27KT 10SM SCT110 35/05 A2994 RMK AO2 PK WND 15032/1932 LTG DSNT W AND NW SLP070 T03500050
KROW 071851Z 18018G27KT 10SM CLR 34/08 A2999 RMK AO2 PK WND 18027/1850 SLP085 T03390078
KROW 071751Z 17013G22KT 10SM CLR 32/08 A3004 RMK AO2 SLP102 T03170078 10317 20156 58017
KROW 071651Z 15014KT 10SM CLR 29/08 A3007 RMK AO2 SLP115 T02890083
KROW 071551Z 17017KT 10SM CLR 26/09 A3009 RMK AO2 SLP127 T02560094
KROW 071451Z 17016KT 10SM CLR 23/09 A3009 RMK AO2 SLP129 T02280094 50002
KROW 071351Z 17013G18KT 10SM CLR 20/09 A3011 RMK AO2 SLP134 T02000094
KROW 071251Z 29006KT 10SM CLR 17/09 A3011 RMK AO2 SLP136 T01720089